sensor_id;sensor_type;location;lat;lon;timestamp;temperature;humidity
26272;DHT22;13997;48.902;12.472;2023-05-15T00:02:24;307.20;2304.00
26272;DHT22;13997;48.902;12.472;2023-05-15T00:04:49;307.20;2304.00
26272;DHT22;13997;48.902;12.472;2023-05-15T00:07:15;307.20;2304.00
26272;DHT22;13997;48.902;12.472;2023-05-15T00:09:41;307.20;2304.00
26272;DHT22;13997;48.902;12.472;2023-05-15T00:12:07;307.20;2304.00
26272;DHT22;13997;48.902;12.472;2023-05-15T00:14:32;307.20;2304.00
26272;DHT22;13997;48.902;12.472;2023-05-15T00:16:58;307.20;2304.00
26272;DHT22;13997;48.902;12.472;2023-05-15T00:19:23;307.20;2304.00
26272;DHT22;13997;48.902;12.472;2023-05-15T00:21:49;307.20;2304.00
26272;DHT22;13997;48.902;12.472;2023-05-15T00:24:15;307.20;2304.00
26272;DHT22;13997;48.902;12.472;2023-05-15T00:26:40;307.20;2304.00
26272;DHT22;13997;48.902;12.472;2023-05-15T00:29:06;307.20;2304.00
26272;DHT22;13997;48.902;12.472;2023-05-15T00:31:32;282.50;2278.40
26272;DHT22;13997;48.902;12.472;2023-05-15T00:33:58;282.50;2278.40
26272;DHT22;13997;48.902;12.472;2023-05-15T00:36:24;282.40;2278.40
26272;DHT22;13997;48.902;12.472;2023-05-15T00:38:50;282.40;2278.40
26272;DHT22;13997;48.902;12.472;2023-05-15T00:41:17;282.40;2278.40
26272;DHT22;13997;48.902;12.472;2023-05-15T00:43:43;282.40;2278.40
26272;DHT22;13997;48.902;12.472;2023-05-15T00:46:09;282.30;2278.40
26272;DHT22;13997;48.902;12.472;2023-05-15T00:48:38;282.30;2278.40
26272;DHT22;13997;48.902;12.472;2023-05-15T00:51:04;282.30;2278.40
26272;DHT22;13997;48.902;12.472;2023-05-15T00:53:29;282.30;2278.40
26272;DHT22;13997;48.902;12.472;2023-05-15T00:55:57;282.20;2278.40
26272;DHT22;13997;48.902;12.472;2023-05-15T00:58:23;282.20;2278.40
26272;DHT22;13997;48.902;12.472;2023-05-15T01:00:52;282.20;2278.40
26272;DHT22;13997;48.902;12.472;2023-05-15T01:03:18;282.10;2278.40
26272;DHT22;13997;48.902;12.472;2023-05-15T01:05:43;282.10;2278.40
26272;DHT22;13997;48.902;12.472;2023-05-15T01:08:25;282.10;2278.40
26272;DHT22;13997;48.902;12.472;2023-05-15T01:10:51;282.10;2278.40
26272;DHT22;13997;48.902;12.472;2023-05-15T01:13:19;282.10;2278.40
26272;DHT22;13997;48.902;12.472;2023-05-15T01:15:46;282.10;2278.40
26272;DHT22;13997;48.902;12.472;2023-05-15T01:18:12;282.10;2278.40
26272;DHT22;13997;48.902;12.472;2023-05-15T01:24:03;282.00;2278.40
26272;DHT22;13997;48.902;12.472;2023-05-15T01:35:20;281.90;2278.40
26272;DHT22;13997;48.902;12.472;2023-05-15T01:37:50;281.90;2278.40
26272;DHT22;13997;48.902;12.472;2023-05-15T01:40:20;281.90;2278.40
26272;DHT22;13997;48.902;12.472;2023-05-15T01:42:54;281.80;2278.40
26272;DHT22;13997;48.902;12.472;2023-05-15T01:45:22;281.80;2278.40
26272;DHT22;13997;48.902;12.472;2023-05-15T01:47:48;281.80;2278.40
26272;DHT22;13997;48.902;12.472;2023-05-15T01:50:16;281.80;2278.40
26272;DHT22;13997;48.902;12.472;2023-05-15T01:52:57;281.80;2278.40
26272;DHT22;13997;48.902;12.472;2023-05-15T01:55:25;281.80;2278.40
26272;DHT22;13997;48.902;12.472;2023-05-15T01:57:51;281.80;2278.40
26272;DHT22;13997;48.902;12.472;2023-05-15T02:00:18;281.80;2278.40
26272;DHT22;13997;48.902;12.472;2023-05-15T02:02:45;281.80;2278.40
26272;DHT22;13997;48.902;12.472;2023-05-15T02:05:13;281.80;2278.40
26272;DHT22;13997;48.902;12.472;2023-05-15T02:07:41;281.80;2278.40
26272;DHT22;13997;48.902;12.472;2023-05-15T02:10:08;281.70;2278.40
26272;DHT22;13997;48.902;12.472;2023-05-15T02:12:34;281.70;2278.40
26272;DHT22;13997;48.902;12.472;2023-05-15T02:15:02;281.60;2278.40
26272;DHT22;13997;48.902;12.472;2023-05-15T02:17:27;281.60;2278.40
26272;DHT22;13997;48.902;12.472;2023-05-15T02:19:54;281.60;2278.40
26272;DHT22;13997;48.902;12.472;2023-05-15T02:22:19;281.60;2278.40
26272;DHT22;13997;48.902;12.472;2023-05-15T02:24:45;281.60;2278.40
26272;DHT22;13997;48.902;12.472;2023-05-15T02:27:24;281.60;2278.40
26272;DHT22;13997;48.902;12.472;2023-05-15T02:35:41;281.60;2278.40
26272;DHT22;13997;48.902;12.472;2023-05-15T02:38:15;281.60;2278.40
26272;DHT22;13997;48.902;12.472;2023-05-15T02:40:43;281.60;2278.40
26272;DHT22;13997;48.902;12.472;2023-05-15T02:43:10;281.60;2278.40
26272;DHT22;13997;48.902;12.472;2023-05-15T02:45:36;281.60;2278.40
26272;DHT22;13997;48.902;12.472;2023-05-15T02:48:02;281.60;2278.40
26272;DHT22;13997;48.902;12.472;2023-05-15T02:50:28;281.60;2278.40
26272;DHT22;13997;48.902;12.472;2023-05-15T02:53:04;281.60;2278.40
26272;DHT22;13997;48.902;12.472;2023-05-15T02:55:30;281.60;2278.40
26272;DHT22;13997;48.902;12.472;2023-05-15T02:57:56;281.60;2278.40
26272;DHT22;13997;48.902;12.472;2023-05-15T03:00:22;281.60;2278.40
26272;DHT22;13997;48.902;12.472;2023-05-15T03:02:48;281.60;2278.40
26272;DHT22;13997;48.902;12.472;2023-05-15T03:05:13;256.90;2252.80
26272;DHT22;13997;48.902;12.472;2023-05-15T03:07:39;256.90;2252.80
26272;DHT22;13997;48.902;12.472;2023-05-15T03:10:06;256.90;2252.80
26272;DHT22;13997;48.902;12.472;2023-05-15T03:12:32;256.80;2252.80
26272;DHT22;13997;48.902;12.472;2023-05-15T03:14:58;256.80;2252.80
26272;DHT22;13997;48.902;12.472;2023-05-15T03:17:23;256.70;2252.80
26272;DHT22;13997;48.902;12.472;2023-05-15T03:19:49;256.70;2252.80
26272;DHT22;13997;48.902;12.472;2023-05-15T03:22:14;256.70;2252.80
26272;DHT22;13997;48.902;12.472;2023-05-15T03:24:40;256.70;2252.80
26272;DHT22;13997;48.902;12.472;2023-05-15T03:27:05;256.70;2252.80
26272;DHT22;13997;48.902;12.472;2023-05-15T03:29:31;256.70;2252.80
26272;DHT22;13997;48.902;12.472;2023-05-15T03:31:57;256.70;2252.80
26272;DHT22;13997;48.902;12.472;2023-05-15T03:34:22;256.70;2252.80
26272;DHT22;13997;48.902;12.472;2023-05-15T03:36:48;256.70;2252.80
26272;DHT22;13997;48.902;12.472;2023-05-15T03:39:13;256.70;2252.80
26272;DHT22;13997;48.902;12.472;2023-05-15T03:41:39;256.70;2252.80
26272;DHT22;13997;48.902;12.472;2023-05-15T03:44:05;256.70;2252.80
26272;DHT22;13997;48.902;12.472;2023-05-15T03:46:30;256.70;2252.80
26272;DHT22;13997;48.902;12.472;2023-05-15T03:48:56;256.70;2252.80
26272;DHT22;13997;48.902;12.472;2023-05-15T03:51:21;256.70;2252.80
26272;DHT22;13997;48.902;12.472;2023-05-15T03:53:48;256.80;2252.80
26272;DHT22;13997;48.902;12.472;2023-05-15T03:56:14;256.80;2252.80
26272;DHT22;13997;48.902;12.472;2023-05-15T03:58:40;256.80;2252.80
26272;DHT22;13997;48.902;12.472;2023-05-15T04:01:05;256.80;2252.80
26272;DHT22;13997;48.902;12.472;2023-05-15T04:03:32;256.80;2252.80
26272;DHT22;13997;48.902;12.472;2023-05-15T04:05:58;256.80;2252.80
26272;DHT22;13997;48.902;12.472;2023-05-15T04:08:23;256.80;2252.80
26272;DHT22;13997;48.902;12.472;2023-05-15T04:10:49;256.80;2252.80
26272;DHT22;13997;48.902;12.472;2023-05-15T04:13:15;256.90;2252.80
26272;DHT22;13997;48.902;12.472;2023-05-15T04:15:40;256.90;2252.80
26272;DHT22;13997;48.902;12.472;2023-05-15T04:18:06;256.80;2252.80
26272;DHT22;13997;48.902;12.472;2023-05-15T04:20:32;256.80;2252.80
26272;DHT22;13997;48.902;12.472;2023-05-15T04:22:58;256.80;2252.80
26272;DHT22;13997;48.902;12.472;2023-05-15T04:25:24;256.80;2252.80
26272;DHT22;13997;48.902;12.472;2023-05-15T04:27:50;256.80;2252.80
26272;DHT22;13997;48.902;12.472;2023-05-15T04:30:15;256.80;2252.80
26272;DHT22;13997;48.902;12.472;2023-05-15T04:32:41;256.80;2252.80
26272;DHT22;13997;48.902;12.472;2023-05-15T04:35:08;256.90;2252.80
26272;DHT22;13997;48.902;12.472;2023-05-15T04:37:35;256.90;2252.80
26272;DHT22;13997;48.902;12.472;2023-05-15T04:40:01;256.90;2252.80
26272;DHT22;13997;48.902;12.472;2023-05-15T04:42:27;256.90;2252.80
26272;DHT22;13997;48.902;12.472;2023-05-15T04:44:53;256.80;2252.80
26272;DHT22;13997;48.902;12.472;2023-05-15T04:47:19;256.90;2252.80
26272;DHT22;13997;48.902;12.472;2023-05-15T04:49:44;256.90;2252.80
26272;DHT22;13997;48.902;12.472;2023-05-15T04:52:12;256.90;2252.80
26272;DHT22;13997;48.902;12.472;2023-05-15T04:54:37;256.90;2252.80
26272;DHT22;13997;48.902;12.472;2023-05-15T04:57:03;256.80;2252.80
26272;DHT22;13997;48.902;12.472;2023-05-15T04:59:29;256.90;2252.80
26272;DHT22;13997;48.902;12.472;2023-05-15T05:01:55;256.90;2252.80
26272;DHT22;13997;48.902;12.472;2023-05-15T05:04:21;256.80;2252.80
26272;DHT22;13997;48.902;12.472;2023-05-15T05:06:48;256.80;2252.80
26272;DHT22;13997;48.902;12.472;2023-05-15T05:09:13;256.80;2252.80
26272;DHT22;13997;48.902;12.472;2023-05-15T05:11:39;256.80;2252.80
26272;DHT22;13997;48.902;12.472;2023-05-15T05:14:09;256.80;2252.80
26272;DHT22;13997;48.902;12.472;2023-05-15T05:16:35;256.80;2252.80
26272;DHT22;13997;48.902;12.472;2023-05-15T05:19:01;256.70;2252.80
26272;DHT22;13997;48.902;12.472;2023-05-15T05:21:26;256.70;2252.80
26272;DHT22;13997;48.902;12.472;2023-05-15T05:23:52;256.80;2252.80
26272;DHT22;13997;48.902;12.472;2023-05-15T05:26:17;256.80;2252.80
26272;DHT22;13997;48.902;12.472;2023-05-15T05:28:43;256.80;2252.80
26272;DHT22;13997;48.902;12.472;2023-05-15T05:31:08;256.90;2252.80
26272;DHT22;13997;48.902;12.472;2023-05-15T05:33:34;256.90;2252.80
26272;DHT22;13997;48.902;12.472;2023-05-15T05:36:00;256.90;2252.80
26272;DHT22;13997;48.902;12.472;2023-05-15T05:38:25;281.60;2278.40
26272;DHT22;13997;48.902;12.472;2023-05-15T05:40:52;256.90;2252.80
26272;DHT22;13997;48.902;12.472;2023-05-15T05:43:17;281.60;2278.40
26272;DHT22;13997;48.902;12.472;2023-05-15T05:45:43;281.60;2278.40
26272;DHT22;13997;48.902;12.472;2023-05-15T05:48:09;281.70;2278.40
26272;DHT22;13997;48.902;12.472;2023-05-15T05:50:35;281.80;2278.40
26272;DHT22;13997;48.902;12.472;2023-05-15T05:53:00;281.80;2278.40
26272;DHT22;13997;48.902;12.472;2023-05-15T05:55:26;281.80;2278.40
26272;DHT22;13997;48.902;12.472;2023-05-15T05:57:51;281.80;2278.40
26272;DHT22;13997;48.902;12.472;2023-05-15T06:00:17;281.90;2278.40
26272;DHT22;13997;48.902;12.472;2023-05-15T06:02:43;281.90;2278.40
26272;DHT22;13997;48.902;12.472;2023-05-15T06:05:09;282.00;2278.40
26272;DHT22;13997;48.902;12.472;2023-05-15T06:07:34;282.00;2278.40
26272;DHT22;13997;48.902;12.472;2023-05-15T06:10:00;282.00;2278.40
26272;DHT22;13997;48.902;12.472;2023-05-15T06:12:26;282.00;2278.40
26272;DHT22;13997;48.902;12.472;2023-05-15T06:14:52;282.00;2278.40
26272;DHT22;13997;48.902;12.472;2023-05-15T06:17:18;282.00;2278.40
26272;DHT22;13997;48.902;12.472;2023-05-15T06:19:43;282.00;2278.40
26272;DHT22;13997;48.902;12.472;2023-05-15T06:22:09;282.00;2278.40
26272;DHT22;13997;48.902;12.472;2023-05-15T06:24:34;282.00;2278.40
26272;DHT22;13997;48.902;12.472;2023-05-15T06:27:00;282.10;2278.40
26272;DHT22;13997;48.902;12.472;2023-05-15T06:29:26;282.10;2278.40
26272;DHT22;13997;48.902;12.472;2023-05-15T06:31:52;282.10;2278.40
26272;DHT22;13997;48.902;12.472;2023-05-15T06:34:17;282.10;2278.40
26272;DHT22;13997;48.902;12.472;2023-05-15T06:36:43;282.10;2278.40
26272;DHT22;13997;48.902;12.472;2023-05-15T06:39:09;282.10;2278.40
26272;DHT22;13997;48.902;12.472;2023-05-15T06:41:35;282.10;2278.40
26272;DHT22;13997;48.902;12.472;2023-05-15T06:44:01;282.20;2278.40
26272;DHT22;13997;48.902;12.472;2023-05-15T06:46:27;282.20;2278.40
26272;DHT22;13997;48.902;12.472;2023-05-15T06:48:52;282.20;2278.40
26272;DHT22;13997;48.902;12.472;2023-05-15T06:51:18;282.20;2278.40
26272;DHT22;13997;48.902;12.472;2023-05-15T06:53:43;282.20;2278.40
26272;DHT22;13997;48.902;12.472;2023-05-15T06:56:09;282.30;2278.40
26272;DHT22;13997;48.902;12.472;2023-05-15T06:58:34;282.30;2278.40
26272;DHT22;13997;48.902;12.472;2023-05-15T07:01:00;282.30;2278.40
26272;DHT22;13997;48.902;12.472;2023-05-15T07:03:31;282.30;2278.40
26272;DHT22;13997;48.902;12.472;2023-05-15T07:05:57;282.40;2278.40
26272;DHT22;13997;48.902;12.472;2023-05-15T07:08:22;282.50;2278.40
26272;DHT22;13997;48.902;12.472;2023-05-15T07:10:48;282.50;2278.40
26272;DHT22;13997;48.902;12.472;2023-05-15T07:13:17;307.20;2304.00
26272;DHT22;13997;48.902;12.472;2023-05-15T07:15:43;307.20;2304.00
26272;DHT22;13997;48.902;12.472;2023-05-15T07:18:08;307.30;2304.00
26272;DHT22;13997;48.902;12.472;2023-05-15T07:20:34;307.30;2304.00
26272;DHT22;13997;48.902;12.472;2023-05-15T07:22:59;307.30;2304.00
26272;DHT22;13997;48.902;12.472;2023-05-15T07:25:25;307.30;2304.00
26272;DHT22;13997;48.902;12.472;2023-05-15T07:27:51;307.30;2304.00
26272;DHT22;13997;48.902;12.472;2023-05-15T07:30:17;307.30;2304.00
26272;DHT22;13997;48.902;12.472;2023-05-15T07:32:42;307.30;2304.00
26272;DHT22;13997;48.902;12.472;2023-05-15T07:35:08;307.30;2304.00
26272;DHT22;13997;48.902;12.472;2023-05-15T07:37:36;307.30;2304.00
26272;DHT22;13997;48.902;12.472;2023-05-15T07:40:02;307.30;2304.00
26272;DHT22;13997;48.902;12.472;2023-05-15T07:42:28;307.50;2304.00
26272;DHT22;13997;48.902;12.472;2023-05-15T07:44:54;307.50;2304.00
26272;DHT22;13997;48.902;12.472;2023-05-15T07:47:19;307.60;2304.00
26272;DHT22;13997;48.902;12.472;2023-05-15T07:49:45;307.70;2304.00
26272;DHT22;13997;48.902;12.472;2023-05-15T07:52:11;307.80;2304.00
26272;DHT22;13997;48.902;12.472;2023-05-15T07:54:36;308.00;2304.00
26272;DHT22;13997;48.902;12.472;2023-05-15T07:57:04;332.80;2329.60
26272;DHT22;13997;48.902;12.472;2023-05-15T07:59:29;333.10;2329.60
26272;DHT22;13997;48.902;12.472;2023-05-15T08:01:55;333.50;2329.60
26272;DHT22;13997;48.902;12.472;2023-05-15T08:04:21;358.50;2329.60
26272;DHT22;13997;48.902;12.472;2023-05-15T08:36:02;358.70;2329.60
26272;DHT22;13997;48.902;12.472;2023-05-15T08:38:28;410.10;2355.20
26272;DHT22;13997;48.902;12.472;2023-05-15T08:43:22;410.30;2355.20
26272;DHT22;13997;48.902;12.472;2023-05-15T08:45:48;435.30;2355.20
26272;DHT22;13997;48.902;12.472;2023-05-15T08:48:16;435.30;2355.20
26272;DHT22;13997;48.902;12.472;2023-05-15T08:50:46;435.20;2355.20
26272;DHT22;13997;48.902;12.472;2023-05-15T08:53:12;410.40;2355.20
26272;DHT22;13997;48.902;12.472;2023-05-15T08:55:39;410.40;2355.20
26272;DHT22;13997;48.902;12.472;2023-05-15T08:58:05;410.50;2355.20
26272;DHT22;13997;48.902;12.472;2023-05-15T09:00:31;410.30;2355.20
26272;DHT22;13997;48.902;12.472;2023-05-15T09:02:58;410.20;2355.20
26272;DHT22;13997;48.902;12.472;2023-05-15T09:05:29;410.10;2355.20
26272;DHT22;13997;48.902;12.472;2023-05-15T09:07:56;410.10;2355.20
26272;DHT22;13997;48.902;12.472;2023-05-15T09:10:23;410.10;2355.20
26272;DHT22;13997;48.902;12.472;2023-05-15T09:12:50;410.00;2355.20
26272;DHT22;13997;48.902;12.472;2023-05-15T09:15:18;410.10;2355.20
26272;DHT22;13997;48.902;12.472;2023-05-15T09:17:46;410.30;2355.20
26272;DHT22;13997;48.902;12.472;2023-05-15T09:20:29;410.50;2355.20
26272;DHT22;13997;48.902;12.472;2023-05-15T09:22:55;410.50;2355.20
26272;DHT22;13997;48.902;12.472;2023-05-15T09:25:40;435.40;2355.20
26272;DHT22;13997;48.902;12.472;2023-05-15T09:28:27;435.80;2355.20
26272;DHT22;13997;48.902;12.472;2023-05-15T09:31:11;460.80;2380.80
26272;DHT22;13997;48.902;12.472;2023-05-15T09:33:39;461.20;2380.80
26272;DHT22;13997;48.902;12.472;2023-05-15T09:36:06;461.40;2380.80
26272;DHT22;13997;48.902;12.472;2023-05-15T09:38:40;461.40;2380.80
26272;DHT22;13997;48.902;12.472;2023-05-15T09:41:07;461.30;2380.80
26272;DHT22;13997;48.902;12.472;2023-05-15T09:43:37;461.20;2380.80
26272;DHT22;13997;48.902;12.472;2023-05-15T09:46:03;461.30;2380.80
26272;DHT22;13997;48.902;12.472;2023-05-15T09:48:30;461.50;2380.80
26272;DHT22;13997;48.902;12.472;2023-05-15T09:50:56;461.60;2380.80
26272;DHT22;13997;48.902;12.472;2023-05-15T09:53:22;461.60;2380.80
26272;DHT22;13997;48.902;12.472;2023-05-15T09:55:48;461.50;2380.80
26272;DHT22;13997;48.902;12.472;2023-05-15T09:58:16;461.50;2380.80
26272;DHT22;13997;48.902;12.472;2023-05-15T10:00:43;461.50;2380.80
26272;DHT22;13997;48.902;12.472;2023-05-15T10:03:09;486.40;2380.80
26272;DHT22;13997;48.902;12.472;2023-05-15T10:05:36;486.50;2380.80
26272;DHT22;13997;48.902;12.472;2023-05-15T10:08:02;486.60;2380.80
26272;DHT22;13997;48.902;12.472;2023-05-15T10:12:57;486.80;2380.80
26272;DHT22;13997;48.902;12.472;2023-05-15T10:15:24;487.30;2380.80
26272;DHT22;13997;48.902;12.472;2023-05-15T10:17:51;512.00;2380.80
26272;DHT22;13997;48.902;12.472;2023-05-15T10:20:19;512.10;2380.80
26272;DHT22;13997;48.902;12.472;2023-05-15T10:22:50;512.10;2380.80
26272;DHT22;13997;48.902;12.472;2023-05-15T10:28:00;512.20;2380.80
26272;DHT22;13997;48.902;12.472;2023-05-15T10:30:27;512.20;2380.80
26272;DHT22;13997;48.902;12.472;2023-05-15T10:32:54;512.30;2380.80
26272;DHT22;13997;48.902;12.472;2023-05-15T10:35:20;512.20;2380.80
26272;DHT22;13997;48.902;12.472;2023-05-15T10:37:47;512.50;2380.80
26272;DHT22;13997;48.902;12.472;2023-05-15T10:40:14;512.80;2380.80
26272;DHT22;13997;48.902;12.472;2023-05-15T10:42:41;512.90;2380.80
26272;DHT22;13997;48.902;12.472;2023-05-15T10:45:08;537.70;2406.40
26272;DHT22;13997;48.902;12.472;2023-05-15T11:07:36;537.90;2406.40
26272;DHT22;13997;48.902;12.472;2023-05-15T11:12:56;486.90;2380.80
26272;DHT22;13997;48.902;12.472;2023-05-15T11:15:23;486.80;2380.80
26272;DHT22;13997;48.902;12.472;2023-05-15T11:18:05;486.70;2380.80
26272;DHT22;13997;48.902;12.472;2023-05-15T11:20:32;486.70;2380.80
26272;DHT22;13997;48.902;12.472;2023-05-15T11:22:58;486.60;2380.80
26272;DHT22;13997;48.902;12.472;2023-05-15T11:25:30;486.60;2380.80
26272;DHT22;13997;48.902;12.472;2023-05-15T11:27:56;486.60;2380.80
26272;DHT22;13997;48.902;12.472;2023-05-15T11:30:39;486.60;2380.80
26272;DHT22;13997;48.902;12.472;2023-05-15T11:33:08;486.60;2380.80
26272;DHT22;13997;48.902;12.472;2023-05-15T11:35:38;486.60;2380.80
26272;DHT22;13997;48.902;12.472;2023-05-15T11:38:22;486.50;2380.80
26272;DHT22;13997;48.902;12.472;2023-05-15T11:40:58;486.50;2380.80
26272;DHT22;13997;48.902;12.472;2023-05-15T11:43:28;461.70;2380.80
26272;DHT22;13997;48.902;12.472;2023-05-15T11:46:10;486.60;2380.80
26272;DHT22;13997;48.902;12.472;2023-05-15T11:51:16;512.00;2380.80
26272;DHT22;13997;48.902;12.472;2023-05-15T11:53:43;512.40;2380.80
26272;DHT22;13997;48.902;12.472;2023-05-15T11:56:15;512.60;2380.80
26272;DHT22;13997;48.902;12.472;2023-05-15T11:58:42;512.60;2380.80
26272;DHT22;13997;48.902;12.472;2023-05-15T12:01:10;512.50;2380.80
26272;DHT22;13997;48.902;12.472;2023-05-15T12:03:36;512.20;2380.80
26272;DHT22;13997;48.902;12.472;2023-05-15T12:06:02;512.10;2380.80
26272;DHT22;13997;48.902;12.472;2023-05-15T12:08:32;487.20;2380.80
26272;DHT22;13997;48.902;12.472;2023-05-15T12:10:59;486.90;2380.80
26272;DHT22;13997;48.902;12.472;2023-05-15T12:13:26;486.80;2380.80
26272;DHT22;13997;48.902;12.472;2023-05-15T12:15:54;486.90;2380.80
26272;DHT22;13997;48.902;12.472;2023-05-15T12:18:20;487.00;2380.80
26272;DHT22;13997;48.902;12.472;2023-05-15T12:20:46;487.20;2380.80
26272;DHT22;13997;48.902;12.472;2023-05-15T12:23:15;512.10;2380.80
26272;DHT22;13997;48.902;12.472;2023-05-15T12:25:42;487.30;2380.80
26272;DHT22;13997;48.902;12.472;2023-05-15T12:28:10;487.00;2380.80
26272;DHT22;13997;48.902;12.472;2023-05-15T12:30:36;486.70;2380.80
26272;DHT22;13997;48.902;12.472;2023-05-15T12:33:03;486.50;2380.80
26272;DHT22;13997;48.902;12.472;2023-05-15T12:35:32;461.70;2380.80
26272;DHT22;13997;48.902;12.472;2023-05-15T12:38:02;461.60;2380.80
26272;DHT22;13997;48.902;12.472;2023-05-15T12:40:29;461.40;2380.80
26272;DHT22;13997;48.902;12.472;2023-05-15T12:42:57;461.30;2380.80
26272;DHT22;13997;48.902;12.472;2023-05-15T12:45:22;461.10;2380.80
26272;DHT22;13997;48.902;12.472;2023-05-15T12:47:49;461.00;2380.80
26272;DHT22;13997;48.902;12.472;2023-05-15T12:52:55;436.10;2355.20
26272;DHT22;13997;48.902;12.472;2023-05-15T12:55:34;436.10;2355.20
26272;DHT22;13997;48.902;12.472;2023-05-15T12:58:08;435.90;2355.20
26272;DHT22;13997;48.902;12.472;2023-05-15T13:00:36;435.70;2355.20
26272;DHT22;13997;48.902;12.472;2023-05-15T13:03:03;435.40;2355.20
26272;DHT22;13997;48.902;12.472;2023-05-15T13:05:33;410.50;2355.20
26272;DHT22;13997;48.902;12.472;2023-05-15T13:07:59;410.30;2355.20
26272;DHT22;13997;48.902;12.472;2023-05-15T13:10:27;410.20;2355.20
26272;DHT22;13997;48.902;12.472;2023-05-15T13:12:53;410.10;2355.20
26272;DHT22;13997;48.902;12.472;2023-05-15T13:15:30;410.10;2355.20
26272;DHT22;13997;48.902;12.472;2023-05-15T13:20:24;410.10;2355.20
26272;DHT22;13997;48.902;12.472;2023-05-15T13:22:49;410.10;2355.20
26272;DHT22;13997;48.902;12.472;2023-05-15T13:25:19;410.10;2355.20
26272;DHT22;13997;48.902;12.472;2023-05-15T13:27:48;410.20;2355.20
26272;DHT22;13997;48.902;12.472;2023-05-15T13:30:14;410.30;2355.20
26272;DHT22;13997;48.902;12.472;2023-05-15T13:32:40;410.30;2355.20
26272;DHT22;13997;48.902;12.472;2023-05-15T13:35:06;410.30;2355.20
26272;DHT22;13997;48.902;12.472;2023-05-15T13:37:33;410.30;2355.20
26272;DHT22;13997;48.902;12.472;2023-05-15T13:39:58;410.30;2355.20
26272;DHT22;13997;48.902;12.472;2023-05-15T13:42:24;410.40;2355.20
26272;DHT22;13997;48.902;12.472;2023-05-15T13:44:49;410.50;2355.20
26272;DHT22;13997;48.902;12.472;2023-05-15T13:47:15;410.50;2355.20
26272;DHT22;13997;48.902;12.472;2023-05-15T13:49:41;435.30;2355.20
26272;DHT22;13997;48.902;12.472;2023-05-15T13:52:06;435.70;2355.20
26272;DHT22;13997;48.902;12.472;2023-05-15T13:54:32;435.90;2355.20
26272;DHT22;13997;48.902;12.472;2023-05-15T13:56:58;436.10;2355.20
26272;DHT22;13997;48.902;12.472;2023-05-15T13:59:24;460.90;2380.80
26272;DHT22;13997;48.902;12.472;2023-05-15T14:01:49;461.00;2380.80
26272;DHT22;13997;48.902;12.472;2023-05-15T14:04:15;461.10;2380.80
26272;DHT22;13997;48.902;12.472;2023-05-15T14:06:41;461.30;2380.80
26272;DHT22;13997;48.902;12.472;2023-05-15T14:09:06;461.40;2380.80
26272;DHT22;13997;48.902;12.472;2023-05-15T14:11:33;461.40;2380.80
26272;DHT22;13997;48.902;12.472;2023-05-15T14:13:59;461.50;2380.80
26272;DHT22;13997;48.902;12.472;2023-05-15T14:16:24;461.40;2380.80
26272;DHT22;13997;48.902;12.472;2023-05-15T14:18:50;461.40;2380.80
26272;DHT22;13997;48.902;12.472;2023-05-15T14:21:15;461.50;2380.80
26272;DHT22;13997;48.902;12.472;2023-05-15T14:23:42;461.60;2380.80
26272;DHT22;13997;48.902;12.472;2023-05-15T14:26:07;461.70;2380.80
26272;DHT22;13997;48.902;12.472;2023-05-15T14:28:33;486.40;2380.80
26272;DHT22;13997;48.902;12.472;2023-05-15T14:30:58;486.40;2380.80
26272;DHT22;13997;48.902;12.472;2023-05-15T14:33:24;461.60;2380.80
26272;DHT22;13997;48.902;12.472;2023-05-15T14:35:51;461.60;2380.80
26272;DHT22;13997;48.902;12.472;2023-05-15T14:38:17;461.50;2380.80
26272;DHT22;13997;48.902;12.472;2023-05-15T14:40:42;461.50;2380.80
26272;DHT22;13997;48.902;12.472;2023-05-15T14:43:08;461.40;2380.80
26272;DHT22;13997;48.902;12.472;2023-05-15T14:45:34;461.50;2380.80
26272;DHT22;13997;48.902;12.472;2023-05-15T14:47:59;486.40;2380.80
26272;DHT22;13997;48.902;12.472;2023-05-15T14:50:25;486.70;2380.80
26272;DHT22;13997;48.902;12.472;2023-05-15T14:52:51;487.10;2380.80
26272;DHT22;13997;48.902;12.472;2023-05-15T14:55:18;512.10;2380.80
26272;DHT22;13997;48.902;12.472;2023-05-15T14:57:46;512.30;2380.80
26272;DHT22;13997;48.902;12.472;2023-05-15T15:00:14;512.40;2380.80
26272;DHT22;13997;48.902;12.472;2023-05-15T15:02:41;512.10;2380.80
26272;DHT22;13997;48.902;12.472;2023-05-15T15:05:07;512.10;2380.80
26272;DHT22;13997;48.902;12.472;2023-05-15T15:10:25;512.30;2380.80
26272;DHT22;13997;48.902;12.472;2023-05-15T15:12:51;512.50;2380.80
26272;DHT22;13997;48.902;12.472;2023-05-15T15:15:17;512.60;2380.80
26272;DHT22;13997;48.902;12.472;2023-05-15T15:17:42;512.60;2380.80
26272;DHT22;13997;48.902;12.472;2023-05-15T15:20:08;512.70;2380.80
26272;DHT22;13997;48.902;12.472;2023-05-15T15:22:36;512.90;2380.80
26272;DHT22;13997;48.902;12.472;2023-05-15T15:25:02;512.90;2380.80
26272;DHT22;13997;48.902;12.472;2023-05-15T15:27:30;512.90;2380.80
26272;DHT22;13997;48.902;12.472;2023-05-15T15:29:56;512.90;2380.80
26272;DHT22;13997;48.902;12.472;2023-05-15T15:32:22;512.90;2380.80
26272;DHT22;13997;48.902;12.472;2023-05-15T15:34:48;512.80;2380.80
26272;DHT22;13997;48.902;12.472;2023-05-15T15:37:13;512.80;2380.80
26272;DHT22;13997;48.902;12.472;2023-05-15T15:39:39;512.90;2380.80
26272;DHT22;13997;48.902;12.472;2023-05-15T15:42:04;512.90;2380.80
26272;DHT22;13997;48.902;12.472;2023-05-15T15:44:32;537.60;2406.40
26272;DHT22;13997;48.902;12.472;2023-05-15T15:46:58;537.80;2406.40
26272;DHT22;13997;48.902;12.472;2023-05-15T15:49:24;537.90;2406.40
26272;DHT22;13997;48.902;12.472;2023-05-15T15:51:49;538.00;2406.40
26272;DHT22;13997;48.902;12.472;2023-05-15T15:54:15;537.90;2406.40
26272;DHT22;13997;48.902;12.472;2023-05-15T15:56:40;537.80;2406.40
26272;DHT22;13997;48.902;12.472;2023-05-15T15:59:07;537.80;2406.40
26272;DHT22;13997;48.902;12.472;2023-05-15T16:01:33;537.60;2406.40
26272;DHT22;13997;48.902;12.472;2023-05-15T16:03:58;512.80;2380.80